sensor_id;sensor_type;location;lat;lon;timestamp;P1;durP1;ratioP1;P2;durP2;ratioP2
64387;SDS011;50709;52.648;4.764;2022-10-16T00:01:05;3.50;;;1.85;;
64387;SDS011;50709;52.648;4.764;2022-10-16T00:03:34;4.65;;;1.70;;
64387;SDS011;50709;52.648;4.764;2022-10-16T00:06:00;4.63;;;1.52;;
64387;SDS011;50709;52.648;4.764;2022-10-16T00:08:26;4.55;;;1.60;;
64387;SDS011;50709;52.648;4.764;2022-10-16T00:10:52;2.85;;;1.60;;
64387;SDS011;50709;52.648;4.764;2022-10-16T00:13:17;5.70;;;1.50;;
64387;SDS011;50709;52.648;4.764;2022-10-16T00:15:44;3.92;;;1.50;;
64387;SDS011;50709;52.648;4.764;2022-10-16T00:18:11;4.43;;;1.75;;
64387;SDS011;50709;52.648;4.764;2022-10-16T00:20:39;5.53;;;1.88;;
64387;SDS011;50709;52.648;4.764;2022-10-16T00:23:05;3.28;;;1.20;;
64387;SDS011;50709;52.648;4.764;2022-10-16T00:25:30;4.10;;;1.58;;
64387;SDS011;50709;52.648;4.764;2022-10-16T00:27:58;3.13;;;1.65;;
64387;SDS011;50709;52.648;4.764;2022-10-16T00:30:24;3.08;;;1.55;;
64387;SDS011;50709;52.648;4.764;2022-10-16T00:32:51;3.97;;;1.60;;
64387;SDS011;50709;52.648;4.764;2022-10-16T00:35:17;3.05;;;1.35;;
64387;SDS011;50709;52.648;4.764;2022-10-16T00:37:42;2.63;;;1.23;;
64387;SDS011;50709;52.648;4.764;2022-10-16T00:40:07;2.80;;;1.55;;
64387;SDS011;50709;52.648;4.764;2022-10-16T00:42:33;3.05;;;1.60;;
64387;SDS011;50709;52.648;4.764;2022-10-16T00:45:01;2.67;;;1.50;;
64387;SDS011;50709;52.648;4.764;2022-10-16T00:50:00;2.88;;;1.55;;
64387;SDS011;50709;52.648;4.764;2022-10-16T00:52:50;4.75;;;1.75;;
64387;SDS011;50709;52.648;4.764;2022-10-16T00:55:16;3.45;;;1.40;;
64387;SDS011;50709;52.648;4.764;2022-10-16T00:57:43;4.03;;;1.60;;
64387;SDS011;50709;52.648;4.764;2022-10-16T01:00:10;2.60;;;1.60;;
64387;SDS011;50709;52.648;4.764;2022-10-16T01:02:42;4.05;;;1.67;;
64387;SDS011;50709;52.648;4.764;2022-10-16T01:05:07;3.83;;;1.73;;
64387;SDS011;50709;52.648;4.764;2022-10-16T01:07:45;2.92;;;1.70;;
64387;SDS011;50709;52.648;4.764;2022-10-16T01:10:40;3.40;;;1.45;;
64387;SDS011;50709;52.648;4.764;2022-10-16T01:16:28;2.60;;;1.60;;
64387;SDS011;50709;52.648;4.764;2022-10-16T01:18:57;2.50;;;1.70;;
64387;SDS011;50709;52.648;4.764;2022-10-16T01:21:42;4.13;;;1.67;;
64387;SDS011;50709;52.648;4.764;2022-10-16T01:29:34;3.92;;;1.88;;
64387;SDS011;50709;52.648;4.764;2022-10-16T01:32:33;3.25;;;1.77;;
64387;SDS011;50709;52.648;4.764;2022-10-16T01:35:17;7.72;;;2.00;;
64387;SDS011;50709;52.648;4.764;2022-10-16T01:37:49;4.00;;;1.75;;
64387;SDS011;50709;52.648;4.764;2022-10-16T01:40:23;4.78;;;2.00;;
64387;SDS011;50709;52.648;4.764;2022-10-16T01:42:52;3.95;;;1.75;;
64387;SDS011;50709;52.648;4.764;2022-10-16T01:45:23;4.25;;;1.80;;
64387;SDS011;50709;52.648;4.764;2022-10-16T01:47:49;3.08;;;2.13;;
64387;SDS011;50709;52.648;4.764;2022-10-16T01:50:18;4.60;;;2.17;;
64387;SDS011;50709;52.648;4.764;2022-10-16T01:52:46;5.72;;;2.10;;
64387;SDS011;50709;52.648;4.764;2022-10-16T01:55:17;5.47;;;2.10;;
64387;SDS011;50709;52.648;4.764;2022-10-16T01:57:48;5.20;;;1.83;;
64387;SDS011;50709;52.648;4.764;2022-10-16T02:00:17;4.78;;;1.90;;
64387;SDS011;50709;52.648;4.764;2022-10-16T02:02:46;5.47;;;1.90;;
64387;SDS011;50709;52.648;4.764;2022-10-16T02:07:55;4.97;;;1.98;;
64387;SDS011;50709;52.648;4.764;2022-10-16T02:10:21;3.38;;;1.77;;
64387;SDS011;50709;52.648;4.764;2022-10-16T02:12:57;5.95;;;1.67;;
64387;SDS011;50709;52.648;4.764;2022-10-16T02:15:26;8.00;;;2.03;;
64387;SDS011;50709;52.648;4.764;2022-10-16T02:17:51;2.08;;;1.75;;
64387;SDS011;50709;52.648;4.764;2022-10-16T02:20:17;5.95;;;2.13;;
64387;SDS011;50709;52.648;4.764;2022-10-16T02:22:50;5.45;;;1.90;;
64387;SDS011;50709;52.648;4.764;2022-10-16T02:25:18;5.50;;;1.95;;
64387;SDS011;50709;52.648;4.764;2022-10-16T02:28:08;6.78;;;2.53;;
64387;SDS011;50709;52.648;4.764;2022-10-16T02:33:10;4.82;;;1.92;;
64387;SDS011;50709;52.648;4.764;2022-10-16T02:35:38;5.15;;;2.88;;
64387;SDS011;50709;52.648;4.764;2022-10-16T02:38:06;3.03;;;2.00;;
64387;SDS011;50709;52.648;4.764;2022-10-16T02:40:32;4.93;;;1.88;;
64387;SDS011;50709;52.648;4.764;2022-10-16T02:42:58;2.75;;;1.60;;
64387;SDS011;50709;52.648;4.764;2022-10-16T02:45:24;2.85;;;1.70;;
64387;SDS011;50709;52.648;4.764;2022-10-16T02:47:50;4.00;;;1.67;;
64387;SDS011;50709;52.648;4.764;2022-10-16T02:50:15;2.95;;;1.80;;
64387;SDS011;50709;52.648;4.764;2022-10-16T02:52:41;3.30;;;1.70;;
64387;SDS011;50709;52.648;4.764;2022-10-16T02:55:06;3.92;;;1.70;;
64387;SDS011;50709;52.648;4.764;2022-10-16T02:57:32;3.15;;;2.00;;
64387;SDS011;50709;52.648;4.764;2022-10-16T02:59:57;4.00;;;1.45;;
64387;SDS011;50709;52.648;4.764;2022-10-16T03:02:23;4.05;;;1.83;;
64387;SDS011;50709;52.648;4.764;2022-10-16T03:04:48;2.70;;;1.77;;
64387;SDS011;50709;52.648;4.764;2022-10-16T03:07:13;4.35;;;1.67;;
64387;SDS011;50709;52.648;4.764;2022-10-16T03:09:39;3.50;;;1.63;;
64387;SDS011;50709;52.648;4.764;2022-10-16T03:12:04;2.50;;;1.40;;
64387;SDS011;50709;52.648;4.764;2022-10-16T03:14:30;5.63;;;1.70;;
64387;SDS011;50709;52.648;4.764;2022-10-16T03:16:55;5.78;;;1.80;;
64387;SDS011;50709;52.648;4.764;2022-10-16T03:19:20;3.67;;;1.80;;
64387;SDS011;50709;52.648;4.764;2022-10-16T03:21:46;4.47;;;1.73;;
64387;SDS011;50709;52.648;4.764;2022-10-16T03:24:11;5.10;;;2.00;;
64387;SDS011;50709;52.648;4.764;2022-10-16T03:26:37;5.53;;;1.90;;
64387;SDS011;50709;52.648;4.764;2022-10-16T03:29:02;5.95;;;2.10;;
64387;SDS011;50709;52.648;4.764;2022-10-16T03:31:28;4.28;;;1.77;;
64387;SDS011;50709;52.648;4.764;2022-10-16T03:33:56;4.35;;;1.70;;
64387;SDS011;50709;52.648;4.764;2022-10-16T03:36:22;5.38;;;1.70;;
64387;SDS011;50709;52.648;4.764;2022-10-16T03:38:47;2.95;;;1.77;;
64387;SDS011;50709;52.648;4.764;2022-10-16T03:41:12;3.30;;;1.30;;
64387;SDS011;50709;52.648;4.764;2022-10-16T03:43:38;5.45;;;1.60;;
64387;SDS011;50709;52.648;4.764;2022-10-16T03:46:03;5.25;;;1.60;;
64387;SDS011;50709;52.648;4.764;2022-10-16T03:48:29;5.45;;;1.80;;
64387;SDS011;50709;52.648;4.764;2022-10-16T03:50:54;4.85;;;2.15;;
64387;SDS011;50709;52.648;4.764;2022-10-16T03:53:20;3.00;;;1.55;;
64387;SDS011;50709;52.648;4.764;2022-10-16T03:55:45;5.03;;;1.90;;
64387;SDS011;50709;52.648;4.764;2022-10-16T03:58:10;2.55;;;1.63;;
64387;SDS011;50709;52.648;4.764;2022-10-16T04:00:43;5.57;;;1.90;;
64387;SDS011;50709;52.648;4.764;2022-10-16T04:03:10;3.17;;;1.60;;
64387;SDS011;50709;52.648;4.764;2022-10-16T04:05:36;7.20;;;2.20;;
64387;SDS011;50709;52.648;4.764;2022-10-16T04:08:02;3.70;;;2.00;;
64387;SDS011;50709;52.648;4.764;2022-10-16T04:10:28;4.82;;;1.77;;
64387;SDS011;50709;52.648;4.764;2022-10-16T04:12:53;4.25;;;1.95;;
64387;SDS011;50709;52.648;4.764;2022-10-16T04:15:21;6.40;;;2.38;;
64387;SDS011;50709;52.648;4.764;2022-10-16T04:17:47;3.15;;;1.80;;
64387;SDS011;50709;52.648;4.764;2022-10-16T04:20:12;5.78;;;2.17;;
64387;SDS011;50709;52.648;4.764;2022-10-16T04:22:37;4.40;;;2.20;;
64387;SDS011;50709;52.648;4.764;2022-10-16T04:25:03;3.85;;;2.10;;
64387;SDS011;50709;52.648;4.764;2022-10-16T04:27:29;7.05;;;2.63;;
64387;SDS011;50709;52.648;4.764;2022-10-16T04:29:56;5.90;;;2.42;;
64387;SDS011;50709;52.648;4.764;2022-10-16T04:32:22;3.22;;;1.83;;
64387;SDS011;50709;52.648;4.764;2022-10-16T04:34:47;4.80;;;1.98;;
64387;SDS011;50709;52.648;4.764;2022-10-16T04:37:13;7.70;;;2.45;;
64387;SDS011;50709;52.648;4.764;2022-10-16T04:39:38;6.30;;;2.47;;
64387;SDS011;50709;52.648;4.764;2022-10-16T04:42:03;3.10;;;1.67;;
64387;SDS011;50709;52.648;4.764;2022-10-16T04:44:29;6.13;;;2.28;;
64387;SDS011;50709;52.648;4.764;2022-10-16T04:46:54;7.75;;;2.45;;
64387;SDS011;50709;52.648;4.764;2022-10-16T04:49:20;3.65;;;1.85;;
64387;SDS011;50709;52.648;4.764;2022-10-16T04:51:45;4.53;;;1.65;;
64387;SDS011;50709;52.648;4.764;2022-10-16T04:54:10;7.63;;;2.22;;
64387;SDS011;50709;52.648;4.764;2022-10-16T04:56:36;7.47;;;2.42;;
64387;SDS011;50709;52.648;4.764;2022-10-16T04:59:08;6.65;;;2.05;;
64387;SDS011;50709;52.648;4.764;2022-10-16T05:01:34;7.07;;;1.95;;
64387;SDS011;50709;52.648;4.764;2022-10-16T05:03:59;4.68;;;1.88;;
64387;SDS011;50709;52.648;4.764;2022-10-16T05:06:24;4.10;;;1.80;;
64387;SDS011;50709;52.648;4.764;2022-10-16T05:08:50;5.38;;;2.03;;
64387;SDS011;50709;52.648;4.764;2022-10-16T05:11:15;10.23;;;2.53;;
64387;SDS011;50709;52.648;4.764;2022-10-16T05:13:40;7.78;;;2.47;;
64387;SDS011;50709;52.648;4.764;2022-10-16T05:16:06;5.57;;;2.03;;
64387;SDS011;50709;52.648;4.764;2022-10-16T05:18:31;5.10;;;2.10;;
64387;SDS011;50709;52.648;4.764;2022-10-16T05:20:56;5.45;;;1.85;;
64387;SDS011;50709;52.648;4.764;2022-10-16T05:23:22;7.13;;;2.13;;
64387;SDS011;50709;52.648;4.764;2022-10-16T05:25:54;5.22;;;2.50;;
64387;SDS011;50709;52.648;4.764;2022-10-16T05:28:23;5.95;;;1.80;;
64387;SDS011;50709;52.648;4.764;2022-10-16T05:30:52;9.07;;;2.00;;
64387;SDS011;50709;52.648;4.764;2022-10-16T05:33:19;7.85;;;2.63;;
64387;SDS011;50709;52.648;4.764;2022-10-16T05:35:45;6.55;;;2.22;;
64387;SDS011;50709;52.648;4.764;2022-10-16T05:38:10;6.57;;;2.50;;
64387;SDS011;50709;52.648;4.764;2022-10-16T05:40:36;7.38;;;2.10;;
64387;SDS011;50709;52.648;4.764;2022-10-16T05:43:01;7.05;;;2.25;;
64387;SDS011;50709;52.648;4.764;2022-10-16T05:45:27;6.13;;;1.98;;
64387;SDS011;50709;52.648;4.764;2022-10-16T05:47:52;4.50;;;2.10;;
64387;SDS011;50709;52.648;4.764;2022-10-16T05:50:17;6.22;;;2.05;;
64387;SDS011;50709;52.648;4.764;2022-10-16T05:52:43;3.20;;;1.83;;
64387;SDS011;50709;52.648;4.764;2022-10-16T05:55:08;7.05;;;2.20;;
64387;SDS011;50709;52.648;4.764;2022-10-16T05:57:33;5.70;;;2.15;;
64387;SDS011;50709;52.648;4.764;2022-10-16T05:59:59;7.20;;;2.03;;
64387;SDS011;50709;52.648;4.764;2022-10-16T06:02:24;5.28;;;1.80;;
64387;SDS011;50709;52.648;4.764;2022-10-16T06:04:51;6.05;;;2.10;;
64387;SDS011;50709;52.648;4.764;2022-10-16T06:07:18;4.57;;;1.80;;
64387;SDS011;50709;52.648;4.764;2022-10-16T06:09:43;5.18;;;2.20;;
64387;SDS011;50709;52.648;4.764;2022-10-16T06:12:09;5.05;;;2.08;;
64387;SDS011;50709;52.648;4.764;2022-10-16T06:14:34;3.90;;;2.13;;
64387;SDS011;50709;52.648;4.764;2022-10-16T06:16:59;3.92;;;2.10;;
64387;SDS011;50709;52.648;4.764;2022-10-16T06:19:24;7.82;;;2.40;;
64387;SDS011;50709;52.648;4.764;2022-10-16T06:21:50;7.25;;;2.28;;
64387;SDS011;50709;52.648;4.764;2022-10-16T06:24:15;6.40;;;2.42;;
64387;SDS011;50709;52.648;4.764;2022-10-16T06:26:41;4.97;;;2.30;;
64387;SDS011;50709;52.648;4.764;2022-10-16T06:29:06;5.45;;;2.30;;
64387;SDS011;50709;52.648;4.764;2022-10-16T06:31:32;6.35;;;2.47;;
64387;SDS011;50709;52.648;4.764;2022-10-16T06:33:58;4.20;;;2.05;;
64387;SDS011;50709;52.648;4.764;2022-10-16T06:36:24;4.32;;;2.33;;
64387;SDS011;50709;52.648;4.764;2022-10-16T06:38:50;9.05;;;2.72;;
64387;SDS011;50709;52.648;4.764;2022-10-16T06:41:17;5.82;;;2.40;;
64387;SDS011;50709;52.648;4.764;2022-10-16T06:43:46;5.35;;;2.13;;
64387;SDS011;50709;52.648;4.764;2022-10-16T06:46:13;5.00;;;2.20;;
64387;SDS011;50709;52.648;4.764;2022-10-16T06:48:39;5.63;;;2.10;;
64387;SDS011;50709;52.648;4.764;2022-10-16T06:53:33;6.13;;;2.15;;
64387;SDS011;50709;52.648;4.764;2022-10-16T06:56:19;4.97;;;2.22;;
64387;SDS011;50709;52.648;4.764;2022-10-16T06:58:44;7.20;;;2.55;;
64387;SDS011;50709;52.648;4.764;2022-10-16T07:01:11;5.78;;;2.65;;
64387;SDS011;50709;52.648;4.764;2022-10-16T07:03:37;7.75;;;2.72;;
64387;SDS011;50709;52.648;4.764;2022-10-16T07:06:05;5.38;;;2.22;;
64387;SDS011;50709;52.648;4.764;2022-10-16T07:08:33;4.60;;;1.90;;
64387;SDS011;50709;52.648;4.764;2022-10-16T07:11:02;5.22;;;2.08;;
64387;SDS011;50709;52.648;4.764;2022-10-16T07:13:29;4.95;;;2.10;;
64387;SDS011;50709;52.648;4.764;2022-10-16T07:15:55;7.05;;;3.03;;
64387;SDS011;50709;52.648;4.764;2022-10-16T07:18:20;7.35;;;2.35;;
64387;SDS011;50709;52.648;4.764;2022-10-16T07:20:46;6.43;;;2.20;;
64387;SDS011;50709;52.648;4.764;2022-10-16T07:23:12;7.40;;;2.42;;
64387;SDS011;50709;52.648;4.764;2022-10-16T07:25:37;7.18;;;2.30;;
64387;SDS011;50709;52.648;4.764;2022-10-16T07:28:02;9.52;;;2.58;;
64387;SDS011;50709;52.648;4.764;2022-10-16T07:30:28;5.65;;;2.60;;
64387;SDS011;50709;52.648;4.764;2022-10-16T07:32:53;10.63;;;2.60;;
64387;SDS011;50709;52.648;4.764;2022-10-16T07:35:18;6.18;;;2.50;;
64387;SDS011;50709;52.648;4.764;2022-10-16T07:37:45;7.78;;;2.70;;
64387;SDS011;50709;52.648;4.764;2022-10-16T07:40:11;8.05;;;2.05;;
64387;SDS011;50709;52.648;4.764;2022-10-16T07:42:37;6.80;;;2.20;;
64387;SDS011;50709;52.648;4.764;2022-10-16T07:45:02;7.40;;;2.50;;
64387;SDS011;50709;52.648;4.764;2022-10-16T07:47:28;8.63;;;2.35;;
64387;SDS011;50709;52.648;4.764;2022-10-16T07:49:53;8.30;;;2.22;;
64387;SDS011;50709;52.648;4.764;2022-10-16T07:52:18;8.45;;;2.20;;
64387;SDS011;50709;52.648;4.764;2022-10-16T07:54:44;6.78;;;2.60;;
64387;SDS011;50709;52.648;4.764;2022-10-16T07:57:10;10.68;;;2.25;;
64387;SDS011;50709;52.648;4.764;2022-10-16T07:59:35;10.35;;;2.20;;
64387;SDS011;50709;52.648;4.764;2022-10-16T08:02:00;7.50;;;2.38;;
64387;SDS011;50709;52.648;4.764;2022-10-16T08:04:25;5.82;;;2.10;;
64387;SDS011;50709;52.648;4.764;2022-10-16T08:06:51;9.80;;;2.53;;
64387;SDS011;50709;52.648;4.764;2022-10-16T08:09:16;6.78;;;2.05;;
64387;SDS011;50709;52.648;4.764;2022-10-16T08:11:41;7.93;;;2.15;;
64387;SDS011;50709;52.648;4.764;2022-10-16T08:14:07;7.40;;;2.00;;
64387;SDS011;50709;52.648;4.764;2022-10-16T08:16:32;6.85;;;2.60;;
64387;SDS011;50709;52.648;4.764;2022-10-16T08:18:57;9.85;;;1.88;;
64387;SDS011;50709;52.648;4.764;2022-10-16T08:21:23;6.18;;;1.92;;
64387;SDS011;50709;52.648;4.764;2022-10-16T08:23:49;7.65;;;2.10;;
64387;SDS011;50709;52.648;4.764;2022-10-16T08:26:15;7.75;;;2.47;;
64387;SDS011;50709;52.648;4.764;2022-10-16T08:28:41;8.05;;;2.13;;
64387;SDS011;50709;52.648;4.764;2022-10-16T08:31:07;5.97;;;1.52;;
64387;SDS011;50709;52.648;4.764;2022-10-16T08:33:37;7.75;;;2.28;;
64387;SDS011;50709;52.648;4.764;2022-10-16T08:36:04;5.35;;;1.70;;
64387;SDS011;50709;52.648;4.764;2022-10-16T08:38:30;6.65;;;1.67;;
64387;SDS011;50709;52.648;4.764;2022-10-16T08:40:57;5.50;;;1.60;;
64387;SDS011;50709;52.648;4.764;2022-10-16T08:49:07;4.32;;;1.63;;
64387;SDS011;50709;52.648;4.764;2022-10-16T08:51:38;7.47;;;2.33;;
64387;SDS011;50709;52.648;4.764;2022-10-16T08:54:05;6.43;;;2.00;;
64387;SDS011;50709;52.648;4.764;2022-10-16T08:56:48;6.32;;;2.17;;
64387;SDS011;50709;52.648;4.764;2022-10-16T08:59:13;8.15;;;1.60;;
64387;SDS011;50709;52.648;4.764;2022-10-16T09:01:41;8.05;;;2.38;;
64387;SDS011;50709;52.648;4.764;2022-10-16T09:07:15;10.30;;;2.35;;
64387;SDS011;50709;52.648;4.764;2022-10-16T09:15:41;9.07;;;2.30;;
64387;SDS011;50709;52.648;4.764;2022-10-16T09:23:40;7.67;;;2.23;;
64387;SDS011;50709;52.648;4.764;2022-10-16T09:26:08;7.40;;;2.50;;
64387;SDS011;50709;52.648;4.764;2022-10-16T09:28:36;8.55;;;2.92;;
64387;SDS011;50709;52.648;4.764;2022-10-16T09:31:01;9.95;;;2.15;;
64387;SDS011;50709;52.648;4.764;2022-10-16T09:33:33;8.93;;;2.40;;
64387;SDS011;50709;52.648;4.764;2022-10-16T09:36:03;6.55;;;1.88;;
64387;SDS011;50709;52.648;4.764;2022-10-16T09:38:33;10.82;;;2.10;;
64387;SDS011;50709;52.648;4.764;2022-10-16T09:43:46;6.80;;;2.03;;
64387;SDS011;50709;52.648;4.764;2022-10-16T09:46:25;7.67;;;2.10;;
64387;SDS011;50709;52.648;4.764;2022-10-16T09:49:16;6.75;;;1.80;;
64387;SDS011;50709;52.648;4.764;2022-10-16T09:51:45;7.78;;;2.03;;
64387;SDS011;50709;52.648;4.764;2022-10-16T09:54:13;6.65;;;1.92;;
64387;SDS011;50709;52.648;4.764;2022-10-16T09:56:40;8.13;;;2.38;;
64387;SDS011;50709;52.648;4.764;2022-10-16T09:59:10;6.68;;;2.20;;
64387;SDS011;50709;52.648;4.764;2022-10-16T10:01:41;5.68;;;2.28;;
64387;SDS011;50709;52.648;4.764;2022-10-16T10:06:36;9.40;;;2.30;;
64387;SDS011;50709;52.648;4.764;2022-10-16T10:11:44;8.63;;;2.15;;
64387;SDS011;50709;52.648;4.764;2022-10-16T10:16:48;6.40;;;2.10;;
64387;SDS011;50709;52.648;4.764;2022-10-16T10:19:15;8.45;;;1.90;;
64387;SDS011;50709;52.648;4.764;2022-10-16T10:21:42;7.75;;;2.30;;
64387;SDS011;50709;52.648;4.764;2022-10-16T10:24:14;4.85;;;1.60;;
64387;SDS011;50709;52.648;4.764;2022-10-16T10:26:42;7.40;;;2.00;;
64387;SDS011;50709;52.648;4.764;2022-10-16T10:30:04;5.28;;;1.77;;
64387;SDS011;50709;52.648;4.764;2022-10-16T10:35:30;7.13;;;1.90;;
64387;SDS011;50709;52.648;4.764;2022-10-16T10:58:08;6.20;;;2.50;;
64387;SDS011;50709;52.648;4.764;2022-10-16T11:01:14;6.40;;;1.85;;
64387;SDS011;50709;52.648;4.764;2022-10-16T11:06:31;8.13;;;1.77;;
64387;SDS011;50709;52.648;4.764;2022-10-16T11:09:12;6.95;;;1.83;;
64387;SDS011;50709;52.648;4.764;2022-10-16T11:11:51;6.38;;;1.85;;
64387;SDS011;50709;52.648;4.764;2022-10-16T11:14:20;5.53;;;2.05;;
64387;SDS011;50709;52.648;4.764;2022-10-16T11:16:52;7.47;;;2.10;;
64387;SDS011;50709;52.648;4.764;2022-10-16T11:19:34;7.30;;;1.80;;
64387;SDS011;50709;52.648;4.764;2022-10-16T11:25:00;6.93;;;2.00;;
64387;SDS011;50709;52.648;4.764;2022-10-16T11:27:41;6.70;;;2.00;;
64387;SDS011;50709;52.648;4.764;2022-10-16T11:30:24;4.80;;;2.00;;
64387;SDS011;50709;52.648;4.764;2022-10-16T11:41:03;6.03;;;1.40;;
64387;SDS011;50709;52.648;4.764;2022-10-16T11:43:43;5.30;;;1.77;;
64387;SDS011;50709;52.648;4.764;2022-10-16T11:46:17;5.30;;;1.73;;
64387;SDS011;50709;52.648;4.764;2022-10-16T11:53:59;7.15;;;3.05;;
64387;SDS011;50709;52.648;4.764;2022-10-16T11:56:32;5.57;;;1.60;;
64387;SDS011;50709;52.648;4.764;2022-10-16T11:59:08;6.20;;;1.60;;
64387;SDS011;50709;52.648;4.764;2022-10-16T12:01:47;8.63;;;2.15;;
64387;SDS011;50709;52.648;4.764;2022-10-16T12:09:31;5.82;;;1.63;;
64387;SDS011;50709;52.648;4.764;2022-10-16T12:11:59;8.50;;;2.05;;
64387;SDS011;50709;52.648;4.764;2022-10-16T12:17:22;6.65;;;1.75;;
64387;SDS011;50709;52.648;4.764;2022-10-16T12:19:58;5.72;;;1.70;;
64387;SDS011;50709;52.648;4.764;2022-10-16T12:22:25;4.53;;;1.38;;
64387;SDS011;50709;52.648;4.764;2022-10-16T12:24:54;8.90;;;2.70;;
64387;SDS011;50709;52.648;4.764;2022-10-16T12:30:01;4.80;;;1.70;;
64387;SDS011;50709;52.648;4.764;2022-10-16T12:32:34;5.78;;;1.60;;
64387;SDS011;50709;52.648;4.764;2022-10-16T12:35:02;4.40;;;1.73;;
64387;SDS011;50709;52.648;4.764;2022-10-16T12:37:35;4.93;;;1.60;;
64387;SDS011;50709;52.648;4.764;2022-10-16T12:40:16;5.28;;;1.90;;
64387;SDS011;50709;52.648;4.764;2022-10-16T12:42:51;5.90;;;1.58;;
64387;SDS011;50709;52.648;4.764;2022-10-16T12:45:27;5.82;;;2.00;;
64387;SDS011;50709;52.648;4.764;2022-10-16T12:47:58;7.45;;;2.25;;
64387;SDS011;50709;52.648;4.764;2022-10-16T12:50:34;6.40;;;2.50;;
64387;SDS011;50709;52.648;4.764;2022-10-16T12:53:02;5.72;;;2.38;;
64387;SDS011;50709;52.648;4.764;2022-10-16T12:55:43;7.20;;;2.15;;
64387;SDS011;50709;52.648;4.764;2022-10-16T13:01:04;16.88;;;5.10;;
64387;SDS011;50709;52.648;4.764;2022-10-16T13:03:48;16.98;;;6.25;;
64387;SDS011;50709;52.648;4.764;2022-10-16T13:06:20;11.65;;;4.25;;
64387;SDS011;50709;52.648;4.764;2022-10-16T13:08:58;7.30;;;2.88;;
64387;SDS011;50709;52.648;4.764;2022-10-16T13:23:01;11.63;;;3.40;;
64387;SDS011;50709;52.648;4.764;2022-10-16T13:28:08;9.00;;;3.78;;
64387;SDS011;50709;52.648;4.764;2022-10-16T13:30:52;7.78;;;2.70;;
64387;SDS011;50709;52.648;4.764;2022-10-16T13:35:54;6.93;;;1.75;;
64387;SDS011;50709;52.648;4.764;2022-10-16T13:38:22;6.18;;;2.03;;
64387;SDS011;50709;52.648;4.764;2022-10-16T13:43:26;8.05;;;2.10;;
64387;SDS011;50709;52.648;4.764;2022-10-16T13:46:00;5.70;;;1.83;;
64387;SDS011;50709;52.648;4.764;2022-10-16T13:48:28;10.80;;;2.15;;
64387;SDS011;50709;52.648;4.764;2022-10-16T13:50:58;5.20;;;1.80;;
64387;SDS011;50709;52.648;4.764;2022-10-16T13:53:32;5.70;;;1.90;;
64387;SDS011;50709;52.648;4.764;2022-10-16T13:55:59;4.95;;;1.77;;
64387;SDS011;50709;52.648;4.764;2022-10-16T13:58:26;5.53;;;1.80;;
64387;SDS011;50709;52.648;4.764;2022-10-16T14:00:58;6.45;;;1.98;;
64387;SDS011;50709;52.648;4.764;2022-10-16T14:03:26;5.15;;;1.70;;
64387;SDS011;50709;52.648;4.764;2022-10-16T14:05:54;8.80;;;2.00;;
64387;SDS011;50709;52.648;4.764;2022-10-16T14:08:22;7.18;;;2.17;;
64387;SDS011;50709;52.648;4.764;2022-10-16T14:10:51;6.85;;;1.70;;
64387;SDS011;50709;52.648;4.764;2022-10-16T14:13:28;7.50;;;1.80;;
64387;SDS011;50709;52.648;4.764;2022-10-16T14:15:58;7.00;;;2.35;;
64387;SDS011;50709;52.648;4.764;2022-10-16T14:18:29;4.20;;;1.48;;
64387;SDS011;50709;52.648;4.764;2022-10-16T14:20:55;6.82;;;2.08;;
64387;SDS011;50709;52.648;4.764;2022-10-16T14:23:29;6.78;;;1.88;;
64387;SDS011;50709;52.648;4.764;2022-10-16T14:28:37;5.30;;;2.47;;
64387;SDS011;50709;52.648;4.764;2022-10-16T14:33:48;5.80;;;1.80;;
64387;SDS011;50709;52.648;4.764;2022-10-16T14:36:14;5.18;;;1.63;;
64387;SDS011;50709;52.648;4.764;2022-10-16T14:38:48;5.97;;;1.70;;
64387;SDS011;50709;52.648;4.764;2022-10-16T14:41:25;3.43;;;1.63;;
64387;SDS011;50709;52.648;4.764;2022-10-16T14:43:52;7.55;;;1.75;;
64387;SDS011;50709;52.648;4.764;2022-10-16T14:46:41;4.03;;;1.92;;
64387;SDS011;50709;52.648;4.764;2022-10-16T14:51:36;5.07;;;1.55;;
64387;SDS011;50709;52.648;4.764;2022-10-16T14:54:02;6.28;;;1.88;;
64387;SDS011;50709;52.648;4.764;2022-10-16T14:56:34;5.15;;;1.48;;
64387;SDS011;50709;52.648;4.764;2022-10-16T14:59:34;4.10;;;1.30;;
64387;SDS011;50709;52.648;4.764;2022-10-16T15:02:29;4.95;;;1.75;;
64387;SDS011;50709;52.648;4.764;2022-10-16T15:04:57;4.82;;;1.58;;
64387;SDS011;50709;52.648;4.764;2022-10-16T15:07:23;5.32;;;1.77;;
64387;SDS011;50709;52.648;4.764;2022-10-16T15:09:49;6.53;;;1.80;;
64387;SDS011;50709;52.648;4.764;2022-10-16T15:12:15;5.32;;;1.80;;
64387;SDS011;50709;52.648;4.764;2022-10-16T15:14:41;6.03;;;1.90;;
64387;SDS011;50709;52.648;4.764;2022-10-16T15:17:08;6.53;;;1.85;;
64387;SDS011;50709;52.648;4.764;2022-10-16T15:19:35;3.78;;;1.88;;
64387;SDS011;50709;52.648;4.764;2022-10-16T15:22:00;5.78;;;1.65;;
64387;SDS011;50709;52.648;4.764;2022-10-16T15:24:25;6.95;;;1.73;;
64387;SDS011;50709;52.648;4.764;2022-10-16T15:26:51;7.03;;;1.67;;
64387;SDS011;50709;52.648;4.764;2022-10-16T15:29:16;6.75;;;1.98;;
64387;SDS011;50709;52.648;4.764;2022-10-16T15:31:42;5.78;;;2.85;;
64387;SDS011;50709;52.648;4.764;2022-10-16T15:34:08;4.22;;;1.80;;
64387;SDS011;50709;52.648;4.764;2022-10-16T15:36:35;6.20;;;2.10;;
64387;SDS011;50709;52.648;4.764;2022-10-16T15:39:03;5.82;;;2.03;;
64387;SDS011;50709;52.648;4.764;2022-10-16T15:41:47;9.00;;;2.10;;
64387;SDS011;50709;52.648;4.764;2022-10-16T15:44:15;9.88;;;1.90;;
64387;SDS011;50709;52.648;4.764;2022-10-16T15:46:44;7.82;;;2.22;;
64387;SDS011;50709;52.648;4.764;2022-10-16T15:49:10;6.07;;;2.40;;
64387;SDS011;50709;52.648;4.764;2022-10-16T15:51:37;7.82;;;2.80;;
64387;SDS011;50709;52.648;4.764;2022-10-16T15:54:03;5.13;;;2.50;;
64387;SDS011;50709;52.648;4.764;2022-10-16T15:56:29;8.88;;;2.40;;
64387;SDS011;50709;52.648;4.764;2022-10-16T15:58:57;8.60;;;2.72;;
64387;SDS011;50709;52.648;4.764;2022-10-16T16:01:23;4.93;;;2.22;;
64387;SDS011;50709;52.648;4.764;2022-10-16T16:03:52;5.70;;;2.15;;
64387;SDS011;50709;52.648;4.764;2022-10-16T16:06:18;8.80;;;2.85;;
64387;SDS011;50709;52.648;4.764;2022-10-16T16:08:43;10.75;;;3.50;;
64387;SDS011;50709;52.648;4.764;2022-10-16T16:11:10;16.55;;;6.22;;
64387;SDS011;50709;52.648;4.764;2022-10-16T16:13:37;16.23;;;5.90;;
64387;SDS011;50709;52.648;4.764;2022-10-16T16:16:10;16.02;;;5.53;;
64387;SDS011;50709;52.648;4.764;2022-10-16T16:18:37;14.55;;;6.30;;
64387;SDS011;50709;52.648;4.764;2022-10-16T16:21:03;12.88;;;4.78;;
64387;SDS011;50709;52.648;4.764;2022-10-16T16:23:29;17.08;;;6.20;;
64387;SDS011;50709;52.648;4.764;2022-10-16T16:26:02;17.70;;;5.80;;
64387;SDS011;50709;52.648;4.764;2022-10-16T16:28:29;14.35;;;5.70;;
64387;SDS011;50709;52.648;4.764;2022-10-16T16:30:55;15.35;;;6.70;;
64387;SDS011;50709;52.648;4.764;2022-10-16T16:33:20;11.77;;;4.55;;
64387;SDS011;50709;52.648;4.764;2022-10-16T16:35:46;10.10;;;4.10;;
64387;SDS011;50709;52.648;4.764;2022-10-16T16:38:11;8.98;;;3.97;;
64387;SDS011;50709;52.648;4.764;2022-10-16T16:40:36;11.15;;;5.10;;
64387;SDS011;50709;52.648;4.764;2022-10-16T16:43:02;10.32;;;4.32;;
64387;SDS011;50709;52.648;4.764;2022-10-16T16:45:28;10.18;;;4.22;;
64387;SDS011;50709;52.648;4.764;2022-10-16T16:47:54;10.93;;;3.53;;
64387;SDS011;50709;52.648;4.764;2022-10-16T16:50:20;7.70;;;2.72;;
64387;SDS011;50709;52.648;4.764;2022-10-16T16:52:45;4.93;;;2.63;;
64387;SDS011;50709;52.648;4.764;2022-10-16T16:55:11;7.20;;;2.95;;
64387;SDS011;50709;52.648;4.764;2022-10-16T16:57:36;7.32;;;2.80;;
64387;SDS011;50709;52.648;4.764;2022-10-16T17:00:02;7.88;;;3.00;;
64387;SDS011;50709;52.648;4.764;2022-10-16T17:02:28;16.92;;;8.90;;
64387;SDS011;50709;52.648;4.764;2022-10-16T17:04:54;30.53;;;17.30;;
64387;SDS011;50709;52.648;4.764;2022-10-16T17:07:21;17.50;;;10.98;;